Merced, CA

6:23 PM PST en Febrero 10, 2016 (GMT -0800)
Merced Municipal-Macready | | Change Station
CLOSE
Current Station
Aeropuerto
Location: Merced,
Altura: 154 ft
Estaciones meteorológicas cercanas

Alt 154 ft 37.28 °N, 120.51 °W | Updated 30 minutes ago

Parcialmente nublado
Parcialmente nublado
63 ° F
Sensación térmica 63 ° F
N
5
Viento Variable Viento desde Oeste

Hoy
Alta -- | Baja -- ° F
--% Posibilidad de precipitaciones
Ayer
Alta -- | Baja -- ° F
Precip. -- pul
Presión 30.17 pul
Visibilidad 9.0 Millas
Nubes Despejado
Punto de rocío 50 ° F
Humedad 63%
Precipitaciones 0.00 pul
Espesor de la nieve No disponible.
6:56 AM 5:36 PM
Creciente, 8% visible
METAR KMCE 110153Z AUTO 26004KT 9SM CLR 17/10 A3016 RMK AO2 SLP214 T01720100
Presión 30.17 pul
Visibilidad 9.0 Millas
Nubes Despejado
Punto de rocío 50 ° F
Humedad 63%
Precipitaciones 0.00 pul
Espesor de la nieve No disponible.
6:56 AM 5:36 PM
Creciente, 8% visible
METAR KMCE 110153Z AUTO 26004KT 9SM CLR 17/10 A3016 RMK AO2 SLP214 T01720100

10-Day Weather Forecast

Almanac

Astronomía

Feb. 10, 2016 Salida Puesta
Hora real
Crepúsculo civil
Crepúsculo náutico
Crepúsculo astronómico
Luna
Horas de luz
Horas de luz
Tomorrow will be .
, % of the Moon is Illuminated

Extremos de hoy

Máximos del estado Bajos del estado

Community

WunderPhotos

Upload Photos

1,891,984 ¡fotos cargadas!

WunderBlog® & News

Nearby

Calidad del aire

  Calidad del aire Índice AQ Contaminante
Not available.

Grosos de nieve

Estación Profundido Altura

Actividad de terremotos

Ciudad Distance Mag. Tiempo y dato
Magnitud mínima muestra es 2,5.

Temperaturas de aguas costeras

Lugar Temperatura

Stations

Estaciones meteorológicas cercanas

Ubicación de la estación Temp. Vientos helados Punto de rocío Humedad Viento Precip. Alt Actualizado Tipo
                   

Watches & Warnings

There are currently no watches in effect.